Time;durP1;ratioP1;P1;durP2;ratioP2;P2;SDS_P1;SDS_P2;PMS_P1;PMS_P2;Temp;Humidity;BMP_temperature;BMP_pressure;BME280_temperature;BME280_humidity;BME280_pressure;Samples;Min_cycle;Max_cycle;Signal;HPM_P1;HPM_P2
2020/12/21 00:00:29;;;;;;;48.20;26.75;;;;;;;0.28;81.96;97091.81;5025630;28;20121;-57
2020/12/21 00:03:09;;;;;;;48.47;26.40;;;;;;;0.25;81.79;97095.56;5048907;28;20060;-54
2020/12/21 00:05:36;;;;;;;48.42;24.60;;;;;;;0.25;81.91;97098.16;4999397;28;20124;-54
2020/12/21 00:08:04;;;;;;;43.28;24.88;;;;;;;0.27;82.03;97093.63;5028471;28;20041;-54
2020/12/21 00:10:31;;;;;;;45.15;26.38;;;;;;;0.29;82.04;97093.44;4985272;28;20052;-55
2020/12/21 00:12:58;;;;;;;48.15;26.20;;;;;;;0.29;81.87;97091.69;5010771;28;20497;-53
2020/12/21 00:15:25;;;;;;;45.30;25.58;;;;;;;0.29;81.53;97098.63;5001967;28;20060;-55
2020/12/21 00:17:52;;;;;;;49.00;26.75;;;;;;;0.28;81.81;97097.00;5011775;28;20579;-54
2020/12/21 00:20:19;;;;;;;47.28;25.13;;;;;;;0.29;81.84;97101.22;5003572;28;20088;-55
2020/12/21 00:22:47;;;;;;;46.75;25.65;;;;;;;0.30;81.86;97090.72;5000562;28;20061;-56
2020/12/21 00:25:14;;;;;;;49.88;26.00;;;;;;;0.37;82.06;97097.84;5015283;28;20893;-54
2020/12/21 00:27:41;;;;;;;41.53;24.80;;;;;;;0.36;81.79;97091.84;5041112;28;20056;-54
2020/12/21 00:30:08;;;;;;;45.47;26.08;;;;;;;0.36;81.31;97091.03;5044934;28;20502;-55
2020/12/21 00:32:35;;;;;;;47.28;26.30;;;;;;;0.34;81.53;97103.34;5002438;28;20045;-54
2020/12/21 00:35:04;;;;;;;41.92;25.52;;;;;;;0.22;82.25;97103.66;5039779;28;20061;-53
2020/12/21 00:37:31;;;;;;;43.00;23.98;;;;;;;0.21;82.49;97102.03;5024427;28;20037;-55
2020/12/21 00:39:58;;;;;;;42.10;24.67;;;;;;;0.19;82.10;97105.75;5011422;28;20053;-56
2020/12/21 00:42:25;;;;;;;45.33;25.35;;;;;;;0.15;81.95;97107.88;4978875;28;20057;-54
2020/12/21 00:44:52;;;;;;;43.05;24.08;;;;;;;0.19;82.11;97116.16;5002828;28;20418;-54
2020/12/21 00:47:20;;;;;;;39.92;24.85;;;;;;;0.22;82.03;97114.03;4966996;28;20485;-55
2020/12/21 00:49:47;;;;;;;42.25;24.42;;;;;;;0.24;82.17;97113.91;5044405;28;20049;-56
2020/12/21 00:52:14;;;;;;;47.20;24.58;;;;;;;0.26;82.07;97124.91;5010762;28;20053;-55
2020/12/21 00:54:43;;;;;;;47.45;23.15;;;;;;;0.27;81.73;97111.78;5011407;28;20437;-55
2020/12/21 00:57:10;;;;;;;43.05;24.27;;;;;;;0.24;81.54;97119.88;5001899;28;20111;-54
2020/12/21 00:59:37;;;;;;;43.45;23.52;;;;;;;0.26;81.69;97115.34;5011594;28;20061;-54
2020/12/21 01:02:07;;;;;;;38.90;22.25;;;;;;;0.29;81.72;97107.25;5011275;28;20049;-58
2020/12/21 01:04:35;;;;;;;39.92;22.45;;;;;;;0.35;81.38;97117.94;5016177;28;20053;-54
2020/12/21 01:07:03;;;;;;;41.58;22.77;;;;;;;0.39;81.47;97122.66;5044600;28;20405;-53
2020/12/21 01:09:31;;;;;;;39.80;23.92;;;;;;;0.41;81.20;97115.53;5026046;28;20057;-54
2020/12/21 01:11:58;;;;;;;38.17;23.35;;;;;;;0.36;81.27;97107.41;5017692;28;20049;-55
2020/12/21 01:14:25;;;;;;;44.30;26.17;;;;;;;0.29;80.94;97107.25;5002013;28;20053;-56
2020/12/21 01:16:53;;;;;;;45.00;24.92;;;;;;;0.28;80.97;97107.41;4999128;28;20046;-53
2020/12/21 01:19:20;;;;;;;39.58;22.60;;;;;;;0.26;81.18;97110.16;5042847;28;20498;-54
2020/12/21 01:21:47;;;;;;;43.00;24.15;;;;;;;0.29;81.42;97115.03;5004135;28;20049;-55
2020/12/21 01:24:14;;;;;;;43.28;23.90;;;;;;;0.26;81.81;97115.34;5014313;28;20060;-54
2020/12/21 01:26:42;;;;;;;44.28;23.25;;;;;;;0.26;81.76;97112.75;5018434;28;20053;-53
2020/12/21 01:29:08;;;;;;;41.85;24.13;;;;;;;0.30;81.42;97108.88;5014206;28;20405;-54
2020/12/21 01:31:36;;;;;;;37.40;22.65;;;;;;;0.32;81.69;97106.09;5011955;28;21564;-55
2020/12/21 01:34:12;;;;;;;44.90;23.77;;;;;;;0.27;81.54;97108.38;5016984;28;20049;-54
2020/12/21 01:36:40;;;;;;;37.00;19.67;;;;;;;0.25;81.56;97105.94;5001152;28;20298;-53
2020/12/21 01:39:09;;;;;;;38.78;21.15;;;;;;;0.26;81.04;97107.56;5019864;28;20049;-53
2020/12/21 01:41:36;;;;;;;32.75;19.85;;;;;;;0.17;81.25;97103.34;4995982;28;20056;-54
2020/12/21 01:44:05;;;;;;;38.25;22.45;;;;;;;0.17;81.53;97108.53;5018000;28;20048;-54
2020/12/21 01:46:32;;;;;;;33.40;18.60;;;;;;;0.15;81.51;97094.91;5013644;28;20049;-54
2020/12/21 01:48:59;;;;;;;36.33;19.45;;;;;;;0.21;81.64;97096.84;5000181;28;20049;-53
2020/12/21 01:51:28;;;;;;;31.02;18.17;;;;;;;0.22;81.18;97095.88;5011087;28;20755;-54
2020/12/21 01:53:55;;;;;;;33.88;19.35;;;;;;;0.27;81.02;97101.41;5013057;28;20049;-53
2020/12/21 01:56:23;;;;;;;29.65;17.92;;;;;;;0.30;81.29;97093.31;5049313;28;20045;-54
2020/12/21 01:58:51;;;;;;;37.50;22.65;;;;;;;0.32;81.28;97100.09;5018441;28;20049;-54
2020/12/21 02:01:19;;;;;;;33.78;19.27;;;;;;;0.30;81.01;97097.66;5021039;28;20068;-54
2020/12/21 02:03:48;;;;;;;32.97;19.75;;;;;;;0.25;81.53;97103.34;5021416;28;20046;-52
2020/12/21 02:06:17;;;;;;;32.88;20.70;;;;;;;0.29;81.43;97103.81;5017464;28;20377;-54
2020/12/21 02:08:45;;;;;;;36.13;19.00;;;;;;;0.35;81.22;97110.16;4999338;28;20421;-54
2020/12/21 02:11:13;;;;;;;32.08;17.98;;;;;;;0.36;80.79;97101.41;5026422;28;20053;-54
2020/12/21 02:13:42;;;;;;;36.85;19.70;;;;;;;0.41;81.21;97112.13;5052497;28;20273;-55
2020/12/21 02:16:14;;;;;;;34.50;18.38;;;;;;;0.41;80.82;97106.94;5024998;28;20045;-55
2020/12/21 02:18:43;;;;;;;31.52;19.48;;;;;;;0.43;80.63;97108.38;5033105;28;20053;-54
2020/12/21 02:21:10;;;;;;;32.10;17.88;;;;;;;0.42;80.52;97098.19;5008509;28;20265;-53
2020/12/21 02:23:37;;;;;;;30.83;17.58;;;;;;;0.42;80.40;97101.56;5035761;28;20061;-55
2020/12/21 02:26:05;;;;;;;30.08;18.10;;;;;;;0.43;80.29;97105.00;5043508;28;20057;-55
2020/12/21 02:28:35;;;;;;;34.05;20.85;;;;;;;0.41;80.16;97106.94;5003280;28;20737;-56
2020/12/21 02:31:02;;;;;;;32.30;19.63;;;;;;;0.34;80.76;97100.75;5020110;28;20518;-54
2020/12/21 02:33:30;;;;;;;38.97;19.75;;;;;;;0.34;81.03;97103.34;5029685;28;20536;-55
2020/12/21 02:35:57;;;;;;;31.25;19.30;;;;;;;0.33;80.76;97101.72;5020055;28;20060;-61
2020/12/21 02:38:25;;;;;;;32.00;19.70;;;;;;;0.30;80.62;97108.88;5015566;28;20055;-55
2020/12/21 02:40:52;;;;;;;31.48;19.98;;;;;;;0.30;81.08;97106.28;5005527;28;20056;-55
2020/12/21 02:43:20;;;;;;;31.88;20.23;;;;;;;0.34;80.43;97105.94;5026971;28;20045;-54
2020/12/21 02:45:48;;;;;;;30.23;19.20;;;;;;;0.34;80.18;97096.38;5045460;28;20401;-55
2020/12/21 02:48:15;;;;;;;36.47;20.80;;;;;;;0.37;80.16;97105.63;5046746;28;20494;-55
2020/12/21 02:50:44;;;;;;;31.60;18.25;;;;;;;0.27;80.29;97104.00;5028842;28;20053;-54
2020/12/21 02:53:15;;;;;;;33.88;19.42;;;;;;;0.23;80.57;97107.88;5016329;28;20698;-54
2020/12/21 02:55:44;;;;;;;35.60;18.77;;;;;;;0.09;80.85;97082.56;5010118;28;20061;-54
2020/12/21 02:58:12;;;;;;;33.65;19.42;;;;;;;0.18;80.86;97101.53;4996123;28;20442;-54
2020/12/21 03:00:39;;;;;;;31.33;18.65;;;;;;;0.21;80.77;97101.22;5013204;28;20048;-54
2020/12/21 03:03:11;;;;;;;30.38;18.95;;;;;;;0.22;80.74;97097.66;5003737;28;20053;-54
2020/12/21 03:05:38;;;;;;;29.98;16.92;;;;;;;0.25;80.75;97105.94;5012573;28;20506;-54
2020/12/21 03:08:07;;;;;;;34.58;18.42;;;;;;;0.28;80.35;97104.81;5045550;28;20049;-55
2020/12/21 03:10:36;;;;;;;33.42;17.48;;;;;;;0.29;80.22;97101.22;5044274;28;20431;-54
2020/12/21 03:13:04;;;;;;;27.38;15.68;;;;;;;0.30;80.11;97108.88;5017628;28;20099;-53
2020/12/21 03:15:31;;;;;;;30.75;16.60;;;;;;;0.27;79.85;97103.19;5012204;28;20045;-56
2020/12/21 03:17:58;;;;;;;27.17;19.08;;;;;;;0.20;80.25;97103.00;5042492;28;20049;-56
2020/12/21 03:20:25;;;;;;;28.40;16.73;;;;;;;0.15;80.28;97105.28;5014583;28;20425;-54
2020/12/21 03:22:52;;;;;;;31.77;18.98;;;;;;;0.11;80.91;97106.56;5008985;28;20045;-54
2020/12/21 03:25:20;;;;;;;28.80;16.55;;;;;;;0.08;80.86;97099.09;4995329;28;20497;-54
2020/12/21 03:27:47;;;;;;;31.40;18.25;;;;;;;0.08;80.62;97099.09;5011488;28;20096;-56
2020/12/21 03:30:14;;;;;;;27.88;15.98;;;;;;;0.09;80.63;97100.72;5020039;28;20057;-54
2020/12/21 03:32:42;;;;;;;29.02;16.95;;;;;;;0.07;80.97;97103.47;5038616;28;20498;-53
2020/12/21 03:35:25;;;;;;;33.88;17.73;;;;;;;0.05;80.56;97096.84;5007788;28;20299;-54
2020/12/21 03:37:54;;;;;;;28.35;15.50;;;;;;;0.04;81.47;97092.63;5015600;28;20049;-56
2020/12/21 03:40:22;;;;;;;25.98;16.17;;;;;;;0.08;80.79;97092.13;5014319;28;20489;-54
2020/12/21 03:42:49;;;;;;;30.42;16.83;;;;;;;0.06;81.05;97091.47;5019005;28;20605;-55
2020/12/21 03:45:17;;;;;;;31.90;16.70;;;;;;;0.03;81.00;97091.00;5014805;28;20501;-54
2020/12/21 03:47:44;;;;;;;27.80;17.45;;;;;;;0.02;80.96;97087.56;5014737;28;20060;-55
2020/12/21 03:50:11;;;;;;;30.98;18.83;;;;;;;0.01;81.25;97098.91;5048107;28;20054;-54
2020/12/21 03:52:39;;;;;;;33.33;19.42;;;;;;;-0.02;81.03;97094.06;5046318;28;20592;-55
2020/12/21 03:55:07;;;;;;;31.42;17.90;;;;;;;-0.06;81.48;97093.53;5030953;28;20057;-53
2020/12/21 03:57:34;;;;;;;29.42;17.17;;;;;;;-0.02;81.26;97094.06;5009504;28;20041;-55
2020/12/21 04:00:01;;;;;;;25.02;15.30;;;;;;;0.04;81.04;97093.41;5016926;28;20513;-54
2020/12/21 04:02:38;;;;;;;28.90;17.30;;;;;;;0.05;80.23;97078.69;5018747;28;20531;-55
2020/12/21 04:05:06;;;;;;;28.38;17.73;;;;;;;0.05;80.88;97089.06;5045271;28;20041;-53
2020/12/21 04:07:35;;;;;;;29.23;16.75;;;;;;;-0.03;80.40;97082.06;4998208;28;20045;-55
2020/12/21 04:10:07;;;;;;;28.25;16.15;;;;;;;0.02;80.76;97095.34;5016787;28;20057;-54
2020/12/21 04:12:35;;;;;;;26.60;16.55;;;;;;;-0.01;80.25;97091.31;5012216;28;20064;-55
2020/12/21 04:15:06;;;;;;;28.80;16.25;;;;;;;-0.01;80.73;97100.88;5017725;28;20258;-54
2020/12/21 04:17:33;;;;;;;27.77;16.83;;;;;;;0.01;81.03;97098.13;4999209;28;20057;-53
2020/12/21 04:20:00;;;;;;;30.50;18.83;;;;;;;0.05;80.30;97100.22;5015195;28;20041;-54
2020/12/21 04:22:27;;;;;;;25.75;16.10;;;;;;;0.07;80.38;97102.66;4977170;28;20053;-55
2020/12/21 04:24:54;;;;;;;21.02;13.85;;;;;;;0.07;80.23;97102.66;5003639;28;20421;-54
2020/12/21 04:27:21;;;;;;;26.58;16.30;;;;;;;0.04;79.66;97101.19;5011959;28;20611;-54
2020/12/21 04:29:48;;;;;;;26.55;15.13;;;;;;;0.01;79.93;97098.13;5015443;28;20060;-53
2020/12/21 04:32:15;;;;;;;30.30;16.73;;;;;;;-0.03;80.13;97102.81;5004642;28;20057;-54
2020/12/21 04:34:43;;;;;;;29.33;17.35;;;;;;;-0.07;79.68;97107.50;5008486;28;20593;-53
2020/12/21 04:37:10;;;;;;;24.58;14.52;;;;;;;-0.08;80.26;97102.47;5042098;28;20049;-53
2020/12/21 04:39:37;;;;;;;26.40;15.82;;;;;;;-0.13;80.05;97097.75;4996170;28;20446;-54
2020/12/21 04:42:05;;;;;;;30.75;16.73;;;;;;;-0.10;80.00;97109.59;4999734;28;20053;-53
2020/12/21 04:44:32;;;;;;;23.52;14.63;;;;;;;-0.15;79.89;97104.88;5045917;28;20065;-56
2020/12/21 04:47:00;;;;;;;23.23;15.75;;;;;;;-0.13;80.08;97110.72;4998278;28;20065;-53
2020/12/21 04:49:27;;;;;;;27.85;16.17;;;;;;;-0.13;79.75;97118.50;5013830;28;20052;-54
2020/12/21 04:51:54;;;;;;;25.73;15.50;;;;;;;-0.18;80.33;97118.97;4990650;28;20054;-53
2020/12/21 04:54:21;;;;;;;29.83;15.07;;;;;;;-0.18;80.73;97123.34;5008750;28;20197;-55
2020/12/21 04:56:48;;;;;;;25.75;15.50;;;;;;;-0.14;80.26;97127.25;4997366;28;20405;-54
2020/12/21 04:59:15;;;;;;;25.63;15.82;;;;;;;-0.08;80.20;97125.81;5001240;28;20045;-54
2020/12/21 05:01:43;;;;;;;27.17;15.95;;;;;;;-0.07;80.17;97128.25;5002214;28;20049;-53
2020/12/21 05:04:14;;;;;;;25.95;16.40;;;;;;;-0.07;80.13;97119.66;5014414;28;20056;-55
2020/12/21 05:06:56;;;;;;;27.33;16.67;;;;;;;-0.15;80.30;97120.44;5010416;28;20045;-54
2020/12/21 05:09:25;;;;;;;29.20;17.45;;;;;;;-0.17;80.32;97123.19;4984495;28;20068;-53
2020/12/21 05:11:54;;;;;;;31.83;18.42;;;;;;;-0.11;80.46;97121.75;5036357;28;20045;-54
2020/12/21 05:14:33;;;;;;;27.75;16.73;;;;;;;-0.06;79.77;97134.25;5021253;28;20160;-54
2020/12/21 05:17:14;;;;;;;31.58;16.45;;;;;;;-0.06;80.28;97137.66;5010880;28;21132;-54
2020/12/21 05:19:43;;;;;;;33.65;18.00;;;;;;;-0.07;80.23;97133.47;5013979;28;20065;-53
2020/12/21 05:22:15;;;;;;;32.40;17.67;;;;;;;-0.09;79.70;97135.38;5027983;28;20064;-54
2020/12/21 05:24:43;;;;;;;28.33;17.35;;;;;;;-0.12;79.76;97125.31;5008512;28;20054;-53
2020/12/21 05:27:18;;;;;;;28.30;17.10;;;;;;;-0.07;79.96;97128.25;5007278;28;20072;-56
2020/12/21 05:29:52;;;;;;;28.38;18.52;;;;;;;-0.04;79.49;97127.94;5046422;28;20053;-54
2020/12/21 05:32:21;;;;;;;28.55;17.30;;;;;;;0.02;79.28;97141.25;5018326;28;20049;-55
2020/12/21 05:34:49;;;;;;;30.90;18.23;;;;;;;-0.05;79.91;97135.88;5051745;28;20056;-54
2020/12/21 05:37:21;;;;;;;32.60;19.70;;;;;;;-0.02;79.71;97138.16;5004747;28;20493;-55
2020/12/21 05:39:56;;;;;;;31.63;16.98;;;;;;;0.03;79.26;97142.88;5020197;28;20060;-54
2020/12/21 05:42:25;;;;;;;33.33;17.88;;;;;;;0.06;79.30;97140.78;5041502;28;20049;-54
2020/12/21 05:44:56;;;;;;;29.88;19.88;;;;;;;0.01;79.57;97139.63;5021314;28;20045;-55
2020/12/21 05:47:28;;;;;;;27.77;19.00;;;;;;;0.02;79.44;97146.44;5010604;28;20096;-53
2020/12/21 05:50:02;;;;;;;28.55;18.45;;;;;;;0.02;79.64;97138.66;5016520;28;20080;-54
2020/12/21 05:52:38;;;;;;;30.58;19.15;;;;;;;0.02;79.54;97134.25;5007237;28;20060;-54
2020/12/21 05:55:11;;;;;;;30.92;19.65;;;;;;;0.07;79.15;97136.38;5004770;28;20050;-53
2020/12/21 05:57:39;;;;;;;27.20;17.85;;;;;;;0.05;79.15;97131.34;5044024;28;20046;-55
2020/12/21 06:00:10;;;;;;;38.50;21.00;;;;;;;0.02;79.38;97133.47;5014945;28;20627;-54
2020/12/21 06:02:38;;;;;;;32.20;18.55;;;;;;;0.04;79.38;97134.13;5049749;28;20399;-53
2020/12/21 06:05:19;;;;;;;32.42;19.73;;;;;;;0.05;78.78;97133.16;5031108;28;20050;-53
2020/12/21 06:07:50;;;;;;;34.78;18.92;;;;;;;-0.01;79.35;97138.00;5023001;28;20053;-55
2020/12/21 06:10:17;;;;;;;36.80;20.55;;;;;;;0.01;79.30;97130.03;5049054;28;20057;-53
2020/12/21 06:12:50;;;;;;;36.28;20.40;;;;;;;0.04;78.81;97131.53;5019128;28;20041;-52
2020/12/21 06:15:23;;;;;;;36.53;21.73;;;;;;;-0.01;78.88;97129.41;5048539;28;20064;-54
2020/12/21 06:17:51;;;;;;;35.90;20.55;;;;;;;-0.02;78.82;97135.56;5009505;28;21410;-55
2020/12/21 06:20:20;;;;;;;37.25;20.40;;;;;;;-0.08;79.41;97134.41;4990323;28;20049;-55
2020/12/21 06:22:47;;;;;;;41.95;23.40;;;;;;;-0.17;79.42;97137.94;5047244;28;20045;-55
2020/12/21 06:25:22;;;;;;;47.97;21.55;;;;;;;-0.24;79.48;97137.75;4998505;28;20053;-55
2020/12/21 06:27:51;;;;;;;52.13;24.27;;;;;;;-0.23;79.72;97134.19;5012158;28;20053;-55
2020/12/21 06:30:29;;;;;;;56.05;24.98;;;;;;;-0.20;79.64;97139.06;5049256;28;20068;-55
2020/12/21 06:33:05;;;;;;;52.60;26.10;;;;;;;-0.20;79.85;97141.66;5019202;28;20053;-56
2020/12/21 06:35:59;;;;;;;53.58;25.80;;;;;;;-0.20;79.13;97144.25;5022727;28;20060;-53
2020/12/21 06:38:27;;;;;;;50.03;24.15;;;;;;;-0.21;79.65;97154.81;5022731;28;20076;-54
2020/12/21 06:40:57;;;;;;;47.47;26.20;;;;;;;-0.24;79.82;97158.50;5017762;28;20060;-55
2020/12/21 06:43:29;;;;;;;40.30;23.35;;;;;;;-0.22;79.88;97153.16;5014042;28;20287;-55
2020/12/21 06:45:56;;;;;;;40.72;21.60;;;;;;;-0.19;79.53;97156.25;5024642;28;20049;-54
2020/12/21 06:48:34;;;;;;;35.97;18.70;;;;;;;-0.15;79.67;97159.34;4992027;28;20050;-54
2020/12/21 06:51:11;;;;;;;33.78;18.73;;;;;;;-0.17;79.52;97156.91;5015189;28;20833;-57
2020/12/21 06:53:39;;;;;;;37.42;19.98;;;;;;;-0.17;79.99;97169.88;5005869;28;20053;-54
2020/12/21 06:56:13;;;;;;;38.22;22.05;;;;;;;-0.16;79.68;97166.31;5004672;28;20044;-53
2020/12/21 06:58:41;;;;;;;34.55;18.50;;;;;;;-0.13;79.89;97172.19;5009835;28;20068;-55
2020/12/21 07:01:09;;;;;;;33.83;19.38;;;;;;;-0.11;79.73;97171.03;5045739;28;20053;-54
2020/12/21 07:03:38;;;;;;;31.52;18.77;;;;;;;-0.13;79.35;97178.16;5014542;28;20049;-55
2020/12/21 07:06:05;;;;;;;34.42;19.33;;;;;;;-0.19;79.81;97171.03;5006677;28;20056;-54
2020/12/21 07:08:34;;;;;;;27.85;16.73;;;;;;;-0.15;79.28;97180.09;5014484;28;20358;-53
2020/12/21 07:11:02;;;;;;;32.47;17.52;;;;;;;-0.14;79.94;97179.13;5018049;28;20049;-54
2020/12/21 07:13:31;;;;;;;30.75;17.23;;;;;;;-0.10;79.87;97170.06;5017668;28;20429;-53
2020/12/21 07:16:02;;;;;;;31.58;18.05;;;;;;;-0.06;79.76;97176.56;5014740;28;20049;-54
2020/12/21 07:18:31;;;;;;;31.98;17.52;;;;;;;-0.05;79.86;97177.38;5007994;28;20045;-53
2020/12/21 07:20:58;;;;;;;26.02;16.05;;;;;;;-0.05;79.93;97164.41;5018015;28;20052;-55
2020/12/21 07:23:26;;;;;;;33.95;18.05;;;;;;;0.01;79.67;97161.16;5012364;28;20050;-55
2020/12/21 07:25:58;;;;;;;27.70;17.13;;;;;;;0.12;79.72;97175.66;5016361;28;20041;-53
2020/12/21 07:28:25;;;;;;;36.20;18.33;;;;;;;0.19;79.46;97176.63;5005233;28;20045;-53
2020/12/21 07:31:10;;;;;;;33.38;19.98;;;;;;;0.22;79.13;97176.31;5037617;28;20064;-53
2020/12/21 07:33:49;;;;;;;35.83;20.95;;;;;;;0.24;79.06;97169.19;5000994;28;20049;-54
2020/12/21 07:36:18;;;;;;;36.20;20.88;;;;;;;0.34;79.26;97179.44;5031586;28;20170;-54
2020/12/21 07:38:45;;;;;;;51.25;27.83;;;;;;;0.41;78.71;97185.59;5013111;28;20045;-56
2020/12/21 07:41:15;;;;;;;59.97;35.83;;;;;;;0.44;78.66;97190.50;5007849;28;20768;-54
2020/12/21 07:43:45;;;;;;;39.95;23.33;;;;;;;0.45;78.74;97186.94;5014167;28;20076;-55
2020/12/21 07:46:21;;;;;;;33.55;21.48;;;;;;;0.43;78.78;97181.06;5003205;28;20053;-54
2020/12/21 07:48:51;;;;;;;35.08;18.50;;;;;;;0.49;78.62;97186.63;5009380;28;20046;-55
2020/12/21 07:51:21;;;;;;;32.80;20.92;;;;;;;0.51;78.35;97180.28;5020332;28;20516;-54
2020/12/21 07:53:50;;;;;;;40.13;25.02;;;;;;;0.52;78.15;97181.91;4996308;28;20417;-55
2020/12/21 07:56:18;;;;;;;38.78;24.45;;;;;;;0.49;78.72;97190.00;5004301;28;20690;-56
2020/12/21 07:58:45;;;;;;;43.67;24.83;;;;;;;0.52;78.26;97189.69;5041588;28;20041;-54
2020/12/21 08:01:20;;;;;;;40.72;24.83;;;;;;;0.54;78.83;97194.72;4990247;28;20557;-54
2020/12/21 08:03:53;;;;;;;34.10;22.87;;;;;;;0.59;78.77;97195.06;5047462;28;20049;-56
2020/12/21 08:06:25;;;;;;;32.72;22.50;;;;;;;0.59;78.58;97192.47;5010929;28;20057;-55
2020/12/21 08:08:52;;;;;;;34.20;21.73;;;;;;;0.59;77.76;97185.47;5018651;28;20052;-56
2020/12/21 08:11:20;;;;;;;33.88;19.85;;;;;;;0.61;78.13;97183.53;5015129;28;20054;-54
2020/12/21 08:13:51;;;;;;;36.40;21.75;;;;;;;0.61;78.09;97175.75;5007038;28;20053;-54
2020/12/21 08:16:25;;;;;;;40.42;23.70;;;;;;;0.59;77.83;97185.47;5010500;28;20053;-54
2020/12/21 08:18:52;;;;;;;36.47;22.05;;;;;;;0.54;78.33;97184.34;5013927;28;20052;-54
2020/12/21 08:21:24;;;;;;;34.58;19.85;;;;;;;0.66;78.37;97177.06;5013088;28;20516;-55
2020/12/21 08:23:53;;;;;;;44.35;22.83;;;;;;;0.69;77.58;97187.09;5002206;28;20057;-54
2020/12/21 08:26:27;;;;;;;34.15;18.80;;;;;;;0.72;77.68;97194.56;5041278;28;20056;-56
2020/12/21 08:28:57;;;;;;;31.48;17.08;;;;;;;0.66;77.83;97179.66;5036998;28;20049;-55
2020/12/21 08:31:25;;;;;;;31.58;17.52;;;;;;;0.79;77.38;97189.53;5008383;28;20435;-55
2020/12/21 08:34:07;;;;;;;31.35;16.77;;;;;;;0.82;77.58;97189.22;5044807;28;20532;-54
2020/12/21 08:36:37;;;;;;;36.00;20.35;;;;;;;0.80;77.47;97191.16;5030099;28;20687;-54
2020/12/21 08:39:20;;;;;;;39.17;23.17;;;;;;;0.82;77.22;97184.84;5004724;28;20208;-56
2020/12/21 08:42:00;;;;;;;45.28;20.73;;;;;;;0.82;77.56;97190.03;5017009;28;20187;-55
2020/12/21 08:44:28;;;;;;;35.88;19.15;;;;;;;0.81;77.63;97193.59;5005691;28;20053;-57
2020/12/21 08:46:59;;;;;;;35.85;17.95;;;;;;;0.82;78.33;97190.03;5043322;28;21820;-53
2020/12/21 08:49:28;;;;;;;41.35;21.77;;;;;;;0.79;77.18;97172.19;5020757;28;20045;-53
2020/12/21 08:52:00;;;;;;;35.95;23.05;;;;;;;0.83;77.61;97173.47;5006011;28;20045;-54
2020/12/21 08:54:29;;;;;;;42.63;22.67;;;;;;;0.85;77.66;97181.91;5008141;28;20065;-55
2020/12/21 09:00:17;;;;;;;39.05;19.33;;;;;;;0.88;78.20;97179.00;5003974;28;20057;-53
2020/12/21 09:02:45;;;;;;;40.50;21.58;;;;;;;0.90;77.83;97165.84;5009676;28;20052;-52
2020/12/21 09:05:13;;;;;;;38.08;22.35;;;;;;;0.91;77.74;97178.69;5041617;28;20671;-53
2020/12/21 09:07:42;;;;;;;38.83;21.45;;;;;;;0.88;77.94;97180.78;4997738;28;20053;-54
2020/12/21 09:10:10;;;;;;;38.58;23.63;;;;;;;0.97;77.96;97181.59;5001723;28;20466;-53
2020/12/21 09:12:38;;;;;;;44.80;26.48;;;;;;;0.99;77.31;97183.03;5009816;28;20045;-55
2020/12/21 09:15:07;;;;;;;62.13;28.75;;;;;;;1.01;77.52;97181.09;5028712;28;20049;-56
2020/12/21 09:17:37;;;;;;;53.55;27.48;;;;;;;0.98;77.46;97172.81;4984403;28;20904;-54
2020/12/21 09:20:37;;;;;;;37.45;22.60;;;;;;;1.05;78.24;97176.38;5001333;28;20171;-54
2020/12/21 09:23:46;;;;;;;45.42;24.45;;;;;;;1.04;77.41;97161.78;5023565;28;20049;-55
2020/12/21 09:26:13;;;;;;;37.85;22.17;;;;;;;1.16;76.78;97170.88;5003970;28;20083;-54
2020/12/21 09:28:40;;;;;;;40.55;23.23;;;;;;;1.19;76.86;97170.53;5000824;28;20038;-53
2020/12/21 09:31:15;;;;;;;44.20;25.23;;;;;;;1.22;76.35;97175.41;4982768;28;20687;-54
2020/12/21 09:33:46;;;;;;;41.75;28.08;;;;;;;1.17;76.44;97169.88;5018844;28;20068;-54
2020/12/21 09:36:15;;;;;;;46.72;27.92;;;;;;;1.15;76.51;97168.41;5015728;28;20045;-54
2020/12/21 09:38:44;;;;;;;43.72;26.20;;;;;;;1.08;76.82;97150.06;5015485;28;20075;-54
2020/12/21 09:41:17;;;;;;;48.80;30.05;;;;;;;1.13;77.13;97145.22;5041049;28;20064;-58
2020/12/21 09:43:47;;;;;;;45.13;26.65;;;;;;;1.20;76.84;97156.56;5000048;28;20379;-53
2020/12/21 09:46:23;;;;;;;42.75;25.48;;;;;;;1.21;76.86;97158.19;5028211;28;20060;-58
2020/12/21 09:48:51;;;;;;;45.50;25.25;;;;;;;1.27;76.37;97151.50;5002268;28;20707;-54
2020/12/21 09:51:19;;;;;;;49.47;27.48;;;;;;;1.22;76.36;97139.00;5041333;28;20041;-53
2020/12/21 09:53:46;;;;;;;50.35;27.90;;;;;;;1.28;76.16;97137.53;5005467;28;20053;-53
2020/12/21 09:56:17;;;;;;;44.00;26.45;;;;;;;1.30;75.99;97130.38;5044831;28;20297;-54
2020/12/21 09:58:46;;;;;;;38.35;24.27;;;;;;;1.36;76.23;97131.50;5015149;28;20505;-54
2020/12/21 10:01:13;;;;;;;44.50;27.77;;;;;;;1.42;75.54;97128.22;5012630;28;20133;-54
2020/12/21 10:03:42;;;;;;;45.75;26.50;;;;;;;1.50;75.66;97124.78;5018471;28;20422;-54
2020/12/21 10:06:10;;;;;;;44.17;26.13;;;;;;;1.57;75.51;97127.53;5012520;28;20061;-55
2020/12/21 10:08:40;;;;;;;38.20;22.23;;;;;;;1.64;75.74;97131.09;5041137;28;20053;-54
2020/12/21 10:11:07;;;;;;;33.83;20.63;;;;;;;1.67;75.94;97131.56;5001317;28;20052;-55
2020/12/21 10:13:35;;;;;;;40.38;21.92;;;;;;;1.75;75.39;97125.53;5010582;28;20049;-55
2020/12/21 10:16:03;;;;;;;37.28;20.85;;;;;;;1.82;74.73;97113.44;5010936;28;20053;-53
2020/12/21 10:18:30;;;;;;;32.90;19.58;;;;;;;1.87;74.45;97127.75;5005012;28;20041;-54
2020/12/21 10:21:01;;;;;;;26.75;18.25;;;;;;;1.91;74.79;97129.03;5046606;28;20240;-57
2020/12/21 10:23:29;;;;;;;29.33;19.70;;;;;;;1.94;74.44;97136.47;5028335;28;20085;-55
2020/12/21 10:26:01;;;;;;;39.40;20.23;;;;;;;1.95;74.81;97131.13;5004908;28;20064;-57
2020/12/21 10:28:29;;;;;;;36.28;21.30;;;;;;;2.05;74.27;97125.69;5011762;28;20053;-54
2020/12/21 10:30:58;;;;;;;39.00;22.70;;;;;;;2.15;74.23;97125.47;5014110;28;20928;-54
2020/12/21 10:33:25;;;;;;;37.78;24.23;;;;;;;2.25;73.57;97112.25;5049038;28;20058;-54
2020/12/21 10:35:52;;;;;;;38.35;22.95;;;;;;;2.28;73.55;97101.47;5016544;28;20520;-53
2020/12/21 10:38:20;;;;;;;38.10;23.95;;;;;;;2.39;73.21;97103.69;5012739;28;20604;-53
2020/12/21 10:40:47;;;;;;;45.85;27.38;;;;;;;2.40;72.56;97096.69;5021227;28;20737;-53
2020/12/21 10:43:15;;;;;;;38.45;24.67;;;;;;;2.45;72.87;97097.78;5043260;28;20053;-55
2020/12/21 10:45:42;;;;;;;42.53;24.98;;;;;;;2.53;72.66;97102.09;5063441;28;20057;-54
2020/12/21 10:48:10;;;;;;;44.42;27.60;;;;;;;2.61;72.38;97102.03;5010937;28;20453;-53
2020/12/21 10:50:37;;;;;;;37.40;24.60;;;;;;;2.63;71.86;97098.44;5010229;28;20049;-54
2020/12/21 10:53:08;;;;;;;36.22;25.33;;;;;;;2.59;72.18;97100.59;5014685;28;20053;-54
2020/12/21 10:55:35;;;;;;;41.03;25.23;;;;;;;2.65;72.27;97099.88;5042639;28;20049;-54
2020/12/21 10:58:02;;;;;;;40.85;26.00;;;;;;;2.76;71.84;97107.31;5042952;28;20333;-54
2020/12/21 11:00:30;;;;;;;37.53;23.75;;;;;;;2.79;71.72;97102.72;5036996;28;20045;-55
2020/12/21 11:02:58;;;;;;;34.22;22.70;;;;;;;2.86;71.34;97108.84;5008832;28;20080;-55
2020/12/21 11:05:25;;;;;;;41.13;22.98;;;;;;;2.90;71.65;97104.88;5024556;28;20119;-55
2020/12/21 11:07:55;;;;;;;35.80;21.90;;;;;;;2.96;71.14;97108.56;5019722;28;20418;-56
2020/12/21 11:10:30;;;;;;;35.63;23.58;;;;;;;3.07;70.46;97097.75;5023645;28;20046;-55
2020/12/21 11:12:58;;;;;;;31.30;19.73;;;;;;;3.12;70.43;97087.56;5045366;28;20088;-54
2020/12/21 11:15:25;;;;;;;31.00;19.30;;;;;;;3.18;70.31;97094.69;5020918;28;20050;-55
2020/12/21 11:17:54;;;;;;;36.83;20.00;;;;;;;3.17;70.58;97087.03;5039826;28;20053;-53
2020/12/21 11:20:21;;;;;;;41.97;24.92;;;;;;;3.23;70.45;97081.91;4991601;28;20050;-55
2020/12/21 11:22:49;;;;;;;34.40;22.45;;;;;;;3.30;69.68;97079.38;5001919;28;20589;-57
2020/12/21 11:25:18;;;;;;;38.90;27.73;;;;;;;3.33;69.74;97073.00;5004291;28;20053;-53
2020/12/21 11:27:46;;;;;;;39.28;25.88;;;;;;;3.31;70.01;97081.00;5038230;28;20049;-54
2020/12/21 11:30:13;;;;;;;46.67;25.67;;;;;;;3.28;69.96;97076.16;5001953;28;20046;-56
2020/12/21 11:32:40;;;;;;;45.58;25.38;;;;;;;3.34;69.53;97070.22;5015479;28;20352;-54
2020/12/21 11:35:07;;;;;;;39.70;24.83;;;;;;;3.43;69.42;97070.94;4977469;28;20053;-54
2020/12/21 11:37:37;;;;;;;43.05;26.92;;;;;;;3.47;69.86;97064.34;5006955;28;20064;-53